Arlington, CA

6:15 PM PDT on September 23, 2014 (GMT -0700)
Arlington Heights | Change Station
CLOSE
Current Station
Personal Weather Station
Location: Riverside, CA
Elevation: 788 ft
Nearby Weather Stations

Elev 788 ft 33.89 °N, 117.47 °W | Updated 12 minutes ago

Clear
Clear
88.2 °F
Feels Like 89 °F
N
3.0
Wind Variable Wind from WNW
Gusts 12.0 mph

Today
High -- | Low -- °F
--% Chance of Precip.
Yesterday
High -- | Low -- °F
Precip. -- in
6:38 AM 6:45 PM
Waning Crescent, 0% visible
Pressure 29.83 in
Visibility 10.0 miles
Clouds Clear
Heat Index 89 °F
Dew Point 63 °F
Humidity 43%
Rainfall -999.00 in
Snow Depth 2 in , 0 in , 0 in
UV 0 out of 12
Pollen 5.70 out of 12
Ozone Moderate
PM2.5 Moderate
Flu Activity Not available.
METAR KRAL 240053Z 26010KT 10SM CLR 31/12 A2987 RMK AO2 SLP101 T03110122

More Conditions Fewer Conditions

Pressure 29.83 in
Visibility 10.0 miles
Clouds Clear
Heat Index 89 °F
Dew Point 63 °F
Humidity 43%
Rainfall -999.00 in
Snow Depth 2 in , 0 in , 0 in
UV 0 out of 12
Pollen 5.70 out of 12
Ozone Moderate
PM2.5 Moderate
Flu Activity Not available.
METAR KRAL 240053Z 26010KT 10SM CLR 31/12 A2987 RMK AO2 SLP101 T03110122

More Conditions Fewer Conditions

10-Day Weather Forecast

Almanac

Astronomy

Sep. 23, 2014 Rise Set
Actual Time 6:38 AM PDT 6:45 PM PDT
Civil Twilight 6:13 AM PDT 7:09 PM PDT
Nautical Twilight 5:44 AM PDT 7:38 PM PDT
Astronomical Twilight 5:15 AM PDT 8:08 PM PDT
Moon 6:07 AM PDT (9/23) 6:27 PM PDT (9/23)
Length of Visible Light 12h 56m
Length of Day
12h 06m
Tomorrow will be 2m 6s shorter.
Waning Crescent, 0% of the Moon is Illuminated
Today
Waning Crescent
Sep 24
New
Oct 1
First Quarter
Oct 8
Full
Oct 15
Last Quarter

Today's Extremes

State Highs State Lows

Community

WunderPhotos

Upload Photos

1,755,836 photos uploaded!

Nearby

Air Quality

  Air Quality AQ Index Pollutant
Yesterday Good
PM10
Yesterday Moderate
OZONE
Current Moderate
OZONE
Current Moderate
PM2.5
Wednesday Good
PM10
Wednesday Moderate
OZONE
Wednesday Good
CO
Wednesday Good
NO2

Snow Depth

Station Depth Elevation
CSS Lab 2 in 6900 ft
Summit Meadow 0 in 9122 ft
Adin Mountain 0 in 6200 ft

Earthquake Activity

City Distance Mag. Time & Date
Running Springs, California 35 miles 2.5 7:26 AM PDT
2014-09-22
Borrego Springs, California 78 miles 2.6 7:34 AM PDT
2014-09-21
Minimum magnitude displayed is 2.5.

Coastal Water Temperatures

Place Temperature
No Stations Reporting

Nearby Weather Stations